weather.gov     
National Weather Service

Terminal Aerodrome Forecast
NWS Homepage
This page is being discontinued on March 12, 2014.
The same data is available at this site. Please update your bookmarks.
Thank you, and we apologize for the inconvenience.
Please send an email to SR-SRH.Webmaster@noaa.gov with any concerns.


Current Version
Previous Version:    01  02  03  04  05  06  07  08  09  10  11  12  13  14  15  16  17  18  19  20  21  22  23  24  25  26  27  28  29  30  
   31  32  33  34  35  
[Printable]
133
FTUS43 KDMX 231127
TAFMCW
TAF
KMCW 231127Z 2312/2412 12015KT P6SM OVC070
     FM231500 14018G26KT P6SM -SHRA BKN060 OVC100
     FM232100 14020G28KT P6SM VCSH BKN060 BKN100
     FM240400 12018G28KT P6SM -TSRA SCT020CB OVC060
     FM240700 12019G28KT 5SM -TSRA BKN009CB OVC020=




133
FTUS43 KDMX 231127
TAFMCW
TAF
KMCW 231127Z 2312/2412 12015KT P6SM OVC070
     FM231500 14018G26KT P6SM -SHRA BKN060 OVC100
     FM232100 14020G28KT P6SM VCSH BKN060 BKN100
     FM240400 12018G28KT P6SM -TSRA SCT020CB OVC060
     FM240700 12019G28KT 5SM -TSRA BKN009CB OVC020=


U.S. Dept. of Commerce
NOAA National Weather Service
1325 East West Highway
Silver Spring, MD 20910
E-mail: w-nws.webmaster@noaa.gov
Page last modified: May 16, 2007
NATIONAL WEATHER SERVICE: for Safety, for Work, for Fun - FOR LIFE